Huvudsida
METAR-TAF:

METAR-TAF

Flygplatser :

Gibraltar International Airport

Gibraltar, Gibraltar

latitud: 36-09N, longitud: 005-21W, höjd: 5 m

Aktuellt väderrapport

Denna rapport gjordes för 1 timme och 2 minuter sedan, klockan 19:50 UTC
Vind 12 kt från ost/nordost
Temperatur 17°C
Fuktighet 94%
Tryck 1015 hPa
Sikt: 9000 m

METAR: LXGB 161950Z AUTO 07012KT 9000 // FEW019/// 17/16 Q1015

Tid: 21:52 (20:52 UTC)

Väderprognos

Denna rapport gjordes för 3 timmar och 57 minuter sedan, klockan 16:55 UTC
Prognos gäller från 16 kl. 18 UTC till 16 kl. 23 UTC
Vind 12 kt från ost
Sikt 10 km eller mer
Spridda moln på en höjd av 1000 ft
Spridda moln på en höjd av 2000 ft
Temporärt
från 16 kl. 18 UTC till 16 kl. 23 UTC
Få moln på en höjd av 1100 ft
Spridda moln på en höjd av 2500 ft
Sannolikhet 30%
från 16 kl. 18 UTC till 16 kl. 23 UTC
Sikt: 7000 m
torrdis

TAF: LXGB 161655Z 1618/1623 08012KT 9999 SCT010 SCT020 TEMPO 1618/1623 FEW011 SCT025 PROB30 1618/1623 7000 HZ

Aktuella väderrapporter och prognoser från 4000 flygplatser (METAR- och TAF-rapporter).

De tillgängliga stationerna syns som gula och röda prickar på kartan.

För musen över prickarna för att se namnen på stationerna.

Klicka sedan för att få väderrapporter och prognoser.

För att ändra kartan: Klicka på de gröna knapparna med ett svart kors på för att zooma in; den gröna knappen med ett streck på för att zooma ut; eller på de gröna pilarna för angränsande kartor.


METAR-TAF: